Time;durP1;ratioP1;P1;durP2;ratioP2;P2;SDS_P1;SDS_P2;PMS_P1;PMS_P2;Temp;Humidity;BMP_temperature;BMP_pressure;BME280_temperature;BME280_humidity;BME280_pressure;Samples;Min_cycle;Max_cycle;Signal;HPM_P1;HPM_P2
2021/05/08 00:06:00;;;;;;;3.93;3.40;;;;;;;3.26;79.66;99318.63;513305;1098;115492;-61
2021/05/08 00:16:05;;;;;;;3.90;3.57;;;;;;;3.23;80.07;99318.76;512712;1104;115515;-61
2021/05/08 00:26:10;;;;;;;4.18;2.95;;;;;;;3.20;79.77;99331.86;513151;1100;115364;-56
2021/05/08 00:36:14;;;;;;;3.57;3.00;;;;;;;3.12;80.03;99341.67;514641;1099;114835;-56
2021/05/08 00:46:19;;;;;;;4.03;3.73;;;;;;;3.12;80.03;99354.64;511876;1104;116057;-56
2021/05/08 00:56:23;;;;;;;3.73;3.37;;;;;;;3.16;79.92;99358.80;512341;1104;114532;-55
2021/05/08 01:06:31;;;;;;;4.10;3.65;;;;;;;3.15;80.07;99380.47;513581;1104;117036;-55
2021/05/08 01:16:40;;;;;;;4.60;4.20;;;;;;;3.14;79.72;99383.97;512729;1104;115579;-56
2021/05/08 01:26:45;;;;;;;3.83;3.43;;;;;;;3.10;79.80;99384.98;513994;1100;115296;-55
2021/05/08 01:36:49;;;;;;;3.63;3.33;;;;;;;2.96;79.61;99403.64;512491;1104;114992;-57
2021/05/08 01:46:54;;;;;;;4.40;3.97;;;;;;;2.96;80.11;99420.06;513368;1100;115297;-55
2021/05/08 01:57:00;;;;;;;4.90;4.07;;;;;;;2.95;80.39;99420.97;512089;1104;115556;-56
2021/05/08 02:07:05;;;;;;;7.23;5.63;;;;;;;2.99;80.17;99432.91;511789;1104;116007;-55
2021/05/08 02:17:09;;;;;;;7.40;5.73;;;;;;;3.02;80.81;99440.58;513704;1104;115759;-55
2021/05/08 02:27:14;;;;;;;5.67;5.07;;;;;;;3.07;80.36;99443.88;512203;1104;115450;-55
2021/05/08 02:37:19;;;;;;;4.73;4.33;;;;;;;3.06;80.69;99455.16;511767;1104;116269;-57
2021/05/08 02:47:23;;;;;;;5.25;4.75;;;;;;;3.03;80.70;99459.60;512026;1100;116295;-57
2021/05/08 02:57:28;;;;;;;8.20;5.00;;;;;;;2.90;80.28;99470.41;512928;1104;115824;-56
2021/05/08 03:07:32;;;;;;;6.43;5.60;;;;;;;2.90;80.46;99477.33;511842;1104;116558;-54
2021/05/08 03:17:36;;;;;;;7.50;5.53;;;;;;;2.86;80.47;99484.36;513393;1104;116808;-55
2021/05/08 03:27:41;;;;;;;6.70;5.50;;;;;;;2.87;80.53;99498.19;512633;1099;115686;-56
2021/05/08 03:37:46;;;;;;;6.90;6.20;;;;;;;2.79;80.75;99504.47;512194;1104;115295;-55
2021/05/08 03:47:51;;;;;;;9.00;5.80;;;;;;;2.79;80.27;99507.05;513241;1100;116076;-55
2021/05/08 03:58:03;;;;;;;7.60;5.45;;;;;;;2.58;80.51;99518.98;512371;1104;115068;-55
2021/05/08 04:08:07;;;;;;;6.80;5.93;;;;;;;3.44;81.00;99531.70;512832;1104;115521;-58
2021/05/08 04:18:12;;;;;;;8.97;6.80;;;;;;;3.56;79.16;99553.77;513827;1104;115836;-55
2021/05/08 04:28:17;;;;;;;7.07;5.20;;;;;;;3.65;79.46;99563.83;512964;1100;115481;-54
2021/05/08 04:38:22;;;;;;;5.85;5.25;;;;;;;4.00;79.20;99564.28;512327;1099;116241;-54
2021/05/08 04:48:29;;;;;;;6.50;5.85;;;;;;;4.67;78.22;99564.33;512760;1104;116425;-56
2021/05/08 04:58:33;;;;;;;7.30;5.65;;;;;;;4.71;77.01;99575.46;512394;1104;115533;-57
2021/05/08 05:08:38;;;;;;;5.80;5.25;;;;;;;5.68;76.48;99574.91;512470;1098;115278;-57
2021/05/08 05:18:42;;;;;;;8.90;5.10;;;;;;;6.15;76.01;99577.17;511946;1100;116678;-55
2021/05/08 05:28:47;;;;;;;4.77;4.27;;;;;;;11.19;73.94;99590.29;512507;1100;114941;-56
2021/05/08 05:38:51;;;;;;;3.95;3.55;;;;;;;17.84;63.86;99583.30;513167;1104;115297;-59
2021/05/08 05:48:56;;;;;;;2.55;2.35;;;;;;;25.24;57.28;99581.88;512256;1104;116382;-58
2021/05/08 05:59:02;;;;;;;2.35;2.15;;;;;;;27.71;44.83;99586.54;512091;1100;115815;-57
2021/05/08 06:09:07;;;;;;;2.53;2.00;;;;;;;28.07;43.44;99598.66;512231;1104;116545;-57
2021/05/08 06:19:11;;;;;;;3.70;2.30;;;;;;;29.82;38.52;99602.03;513303;1104;116456;-57
2021/05/08 06:29:16;;;;;;;3.05;2.75;;;;;;;25.25;36.25;99608.53;513381;1104;115922;-58
2021/05/08 06:39:22;;;;;;;3.40;2.27;;;;;;;23.28;36.19;99605.51;512360;1104;115579;-59
2021/05/08 06:49:26;;;;;;;2.40;2.20;;;;;;;25.45;35.22;99610.55;513431;1104;116176;-59
2021/05/08 06:59:31;;;;;;;3.20;2.77;;;;;;;24.48;33.33;99618.92;513022;1104;116199;-58
2021/05/08 07:09:35;;;;;;;2.80;2.33;;;;;;;24.71;33.79;99629.51;512624;1104;115956;-58
2021/05/08 07:19:40;;;;;;;3.67;2.40;;;;;;;22.95;35.12;99642.21;513391;1104;116357;-59
2021/05/08 07:29:44;;;;;;;4.10;2.20;;;;;;;23.62;31.87;99630.98;512380;1104;115998;-57
2021/05/08 07:39:49;;;;;;;3.63;2.37;;;;;;;20.72;33.26;99635.48;512985;1104;115704;-60
2021/05/08 07:49:53;;;;;;;3.60;2.30;;;;;;;27.35;31.10;99643.39;512888;1099;116806;-59
2021/05/08 07:59:58;;;;;;;3.03;1.60;;;;;;;28.46;28.17;99648.16;512828;1104;115736;-58
2021/05/08 08:10:04;;;;;;;4.05;1.58;;;;;;;18.73;31.27;99658.95;512754;1104;116345;-58
2021/05/08 08:20:12;;;;;;;2.67;1.97;;;;;;;15.04;35.44;99674.69;512712;1099;116287;-59
2021/05/08 08:30:16;;;;;;;;;;;;;;;13.75;38.54;99676.80;514481;1104;116104;-58
2021/05/08 08:40:21;;;;;;;5.23;1.77;;;;;;;13.89;38.47;99685.45;512668;1104;102939;-60
2021/05/08 08:50:28;;;;;;;0.67;0.67;;;;;;;13.55;38.71;99678.28;495699;1104;20003236;-56
2021/05/08 09:00:36;;;;;;;1.90;1.47;;;;;;;12.79;39.20;99684.64;512818;1104;116976;-61
2021/05/08 09:10:40;;;;;;;3.67;1.40;;;;;;;13.75;38.34;99697.05;511239;1099;116337;-61
2021/05/08 09:20:47;;;;;;;2.37;1.77;;;;;;;13.55;38.66;99696.75;511505;1104;115483;-59
2021/05/08 09:30:52;;;;;;;5.60;1.90;;;;;;;13.96;38.59;99695.42;512204;1099;115651;-59
2021/05/08 09:40:57;;;;;;;3.50;1.20;;;;;;;14.29;37.88;99692.91;512950;1100;116478;-58
2021/05/08 09:51:21;;;;;;;6.77;2.40;;;;;;;13.29;38.44;99699.51;504500;1104;10001126;-60
2021/05/08 10:01:27;;;;;;;3.90;1.60;;;;;;;12.62;38.65;99693.75;511322;1104;117272;-63
2021/05/08 10:11:32;;;;;;;3.45;1.20;;;;;;;12.36;39.84;99714.02;512738;1104;116984;-61
2021/05/08 10:21:39;;;;;;;3.95;1.90;;;;;;;12.56;40.48;99699.44;512186;1104;116221;-66
2021/05/08 10:31:44;;;;;;;1.93;1.30;;;;;;;13.49;38.85;99695.41;513789;1104;116329;-67
2021/05/08 10:41:53;;;;;;;5.03;1.73;;;;;;;13.37;38.22;99693.66;512762;1099;115276;-66
2021/05/08 10:51:58;;;;;;;5.75;1.20;;;;;;;13.38;38.91;99701.47;512854;1104;115992;-66
2021/05/08 11:02:03;;;;;;;4.63;1.10;;;;;;;13.37;38.34;99696.30;512375;1096;116875;-65
2021/05/08 11:12:08;;;;;;;2.90;1.07;;;;;;;13.00;37.05;99708.59;515417;1104;115906;-67
2021/05/08 11:22:16;;;;;;;2.20;1.07;;;;;;;12.57;37.24;99701.13;513832;1099;119201;-66
2021/05/08 11:32:20;;;;;;;1.53;0.90;;;;;;;12.87;38.07;99713.08;513970;1104;115649;-68
2021/05/08 11:42:25;;;;;;;1.47;0.90;;;;;;;13.05;37.44;99710.08;504415;1104;10002059;-66
2021/05/08 11:52:38;;;;;;;2.15;1.28;;;;;;;12.24;37.82;99716.55;511555;1104;117103;-66
2021/05/08 12:02:43;;;;;;;1.50;1.10;;;;;;;12.19;37.44;99694.98;511789;1098;117564;-66
2021/05/08 12:12:50;;;;;;;1.93;1.07;;;;;;;11.73;38.29;99702.41;512055;1098;116124;-67
2021/05/08 12:23:00;;;;;;;1.47;0.97;;;;;;;12.42;37.84;99701.27;512016;1096;115974;-66
2021/05/08 12:33:05;;;;;;;2.90;1.10;;;;;;;12.28;36.86;99683.79;512780;1104;116092;-66
2021/05/08 12:43:25;;;;;;;2.57;1.67;;;;;;;12.65;37.30;99697.97;512029;1099;116387;-67
2021/05/08 12:53:29;;;;;;;3.30;1.60;;;;;;;12.92;37.63;99702.20;514263;1099;116050;-67
2021/05/08 13:03:40;;;;;;;1.80;1.60;;;;;;;12.60;37.53;99696.48;512685;1104;116385;-68
2021/05/08 13:13:44;;;;;;;3.33;1.57;;;;;;;12.89;37.75;99696.21;513215;1098;116405;-64
2021/05/08 13:23:49;;;;;;;2.90;1.30;;;;;;;13.08;37.25;99697.48;511658;1104;115655;-59
2021/05/08 13:33:58;;;;;;;1.50;1.07;;;;;;;12.77;36.74;99691.83;521607;1104;116581;-62
2021/05/08 13:44:12;;;;;;;2.87;1.53;;;;;;;12.30;36.65;99692.45;529238;1104;116934;-68
2021/05/08 13:54:17;;;;;;;2.27;1.40;;;;;;;12.36;37.41;99691.17;519217;1100;116045;-66
2021/05/08 14:04:22;;;;;;;2.60;1.77;;;;;;;12.87;36.63;99681.45;511277;1100;116371;-68
2021/05/08 14:14:27;;;;;;;2.00;1.33;;;;;;;13.22;36.75;99685.11;511298;1100;118299;-62
2021/05/08 14:24:31;;;;;;;1.70;1.50;;;;;;;12.31;36.90;99682.73;526922;1104;116352;-66
2021/05/08 14:34:36;;;;;;;4.78;1.75;;;;;;;12.16;37.34;99682.02;513500;1104;116146;-66
2021/05/08 14:44:41;;;;;;;4.90;1.40;;;;;;;12.04;38.07;99687.17;515570;1104;116917;-65
2021/05/08 14:54:45;;;;;;;3.00;1.40;;;;;;;11.77;38.00;99685.45;511953;1096;115975;-68
2021/05/08 15:04:50;;;;;;;2.37;1.73;;;;;;;11.88;38.21;99695.24;512762;1104;115851;-63
2021/05/08 15:14:55;;;;;;;2.60;2.00;;;;;;;11.88;37.83;99689.16;512186;1104;115408;-67
2021/05/08 15:24:59;;;;;;;1.73;1.37;;;;;;;11.77;38.32;99692.49;511039;1104;116076;-61
2021/05/08 15:35:05;;;;;;;1.93;1.57;;;;;;;11.85;38.20;99690.20;512620;1096;115745;-60
2021/05/08 15:45:13;;;;;;;2.00;1.77;;;;;;;11.81;38.50;99686.09;512728;1104;115898;-61
2021/05/08 15:55:21;;;;;;;1.60;1.17;;;;;;;11.73;38.30;99689.25;512365;1096;116472;-61
2021/05/08 16:05:25;;;;;;;1.87;1.33;;;;;;;12.02;37.58;99696.97;512052;1104;115665;-60
2021/05/08 16:15:31;;;;;;;2.13;1.50;;;;;;;11.89;37.08;99693.47;513038;1096;115447;-62
2021/05/08 16:25:39;;;;;;;1.53;1.20;;;;;;;11.80;37.16;99712.50;512331;1096;116269;-61
2021/05/08 16:35:44;;;;;;;2.33;1.70;;;;;;;11.69;37.55;99713.23;512735;1104;115887;-62
2021/05/08 16:45:48;;;;;;;2.57;1.60;;;;;;;11.53;38.04;99708.15;511114;1104;116391;-61
2021/05/08 16:55:53;;;;;;;4.03;1.80;;;;;;;11.44;37.86;99696.46;513049;1104;117241;-68
2021/05/08 17:05:59;;;;;;;2.33;1.50;;;;;;;11.26;38.86;99696.71;512619;1100;117358;-64
2021/05/08 17:16:06;;;;;;;3.27;2.03;;;;;;;11.68;38.54;99703.66;512998;1100;116675;-66
2021/05/08 17:26:11;;;;;;;3.28;1.50;;;;;;;10.99;39.72;99713.33;513427;1104;116020;-67
2021/05/08 17:36:15;;;;;;;4.27;2.47;;;;;;;10.51;41.34;99726.81;512201;1099;115988;-66
2021/05/08 17:46:23;;;;;;;2.73;2.13;;;;;;;10.05;42.02;99738.30;512794;1103;116141;-66
2021/05/08 17:56:28;;;;;;;5.70;2.90;;;;;;;9.48;42.97;99750.32;504453;1096;10001093;-63
2021/05/08 18:06:33;;;;;;;7.87;3.53;;;;;;;8.96;44.39;99765.38;511832;1103;116220;-64
2021/05/08 18:16:37;;;;;;;6.87;3.97;;;;;;;8.45;45.66;99773.30;511514;1104;115925;-63
2021/05/08 18:26:42;;;;;;;12.33;4.90;;;;;;;7.92;47.15;99789.88;512757;1104;116448;-65
2021/05/08 18:36:47;;;;;;;10.93;5.87;;;;;;;7.46;48.96;99800.83;511891;1104;115263;-64
2021/05/08 18:46:51;;;;;;;7.63;4.55;;;;;;;7.04;50.30;99812.36;513053;1104;115635;-64
2021/05/08 18:56:56;;;;;;;8.40;4.50;;;;;;;6.63;51.59;99815.92;513881;1104;116266;-65
2021/05/08 19:07:01;;;;;;;8.50;5.00;;;;;;;6.29;53.14;99828.64;522236;1104;115678;-64
2021/05/08 19:17:05;;;;;;;12.40;8.07;;;;;;;6.00;53.53;99826.34;518665;1096;116060;-64
2021/05/08 19:27:10;;;;;;;23.57;14.73;;;;;;;5.73;55.48;99823.93;520722;1104;116622;-65
2021/05/08 19:37:14;;;;;;;24.73;15.93;;;;;;;5.46;56.21;99818.92;516093;1096;116267;-65
2021/05/08 19:57:44;;;;;;;62.80;42.03;;;;;;;4.91;57.65;99825.31;510997;1104;116294;-65
2021/05/08 20:07:50;;;;;;;44.90;26.33;;;;;;;4.67;58.43;99821.84;518001;1102;115513;-63
2021/05/08 20:17:54;;;;;;;37.27;24.30;;;;;;;4.48;59.11;99821.65;516766;1104;116933;-64
2021/05/08 20:27:59;;;;;;;43.13;27.33;;;;;;;4.38;60.21;99826.33;528552;1104;116883;-65
2021/05/08 20:38:04;;;;;;;43.17;28.23;;;;;;;4.32;60.91;99823.93;529288;1104;116519;-63
2021/05/08 20:48:09;;;;;;;45.13;28.13;;;;;;;4.19;61.20;99826.12;529339;1104;115590;-65
2021/05/08 20:58:14;;;;;;;47.23;25.80;;;;;;;4.04;61.75;99824.88;518120;1104;115413;-65
2021/05/08 21:08:18;;;;;;;47.23;25.33;;;;;;;3.87;62.48;99826.30;525047;1104;116023;-65
2021/05/08 21:18:23;;;;;;;31.33;23.80;;;;;;;3.70;62.77;99832.03;523297;1096;115980;-65
2021/05/08 21:28:28;;;;;;;28.80;18.40;;;;;;;3.68;63.25;99827.77;528460;1104;115866;-65
2021/05/08 21:38:33;;;;;;;33.07;21.27;;;;;;;3.64;62.95;99840.00;529255;1104;116046;-65
2021/05/08 21:48:37;;;;;;;33.33;21.93;;;;;;;3.53;63.54;99835.16;517878;1096;115777;-64
2021/05/08 21:58:42;;;;;;;36.73;23.27;;;;;;;3.39;64.00;99848.55;511726;1104;116102;-63
2021/05/08 22:08:46;;;;;;;33.90;21.73;;;;;;;3.27;64.36;99839.38;524912;1096;115439;-64
2021/05/08 22:18:51;;;;;;;34.03;20.87;;;;;;;3.33;64.39;99827.95;511213;1096;116152;-64
2021/05/08 22:28:55;;;;;;;31.77;21.67;;;;;;;3.24;64.74;99823.07;513681;1104;116407;-65
2021/05/08 22:38:59;;;;;;;28.97;19.03;;;;;;;3.17;64.68;99828.43;529145;1104;115779;-64
2021/05/08 22:49:05;;;;;;;30.13;18.73;;;;;;;3.07;64.82;99834.78;516034;1104;10001859;-64
2021/05/08 22:59:10;;;;;;;27.30;20.53;;;;;;;2.91;65.38;99843.02;516643;1104;116647;-63
2021/05/08 23:09:14;;;;;;;27.10;19.43;;;;;;;2.82;65.90;99838.08;529249;1104;116012;-63
2021/05/08 23:19:21;;;;;;;27.28;19.20;;;;;;;2.74;66.44;99834.84;527975;1104;116779;-64
2021/05/08 23:29:26;;;;;;;26.97;17.97;;;;;;;2.64;66.29;99835.09;514509;1104;116854;-64
2021/05/08 23:39:30;;;;;;;22.87;16.87;;;;;;;2.51;66.38;99831.13;526075;1103;116261;-64
2021/05/08 23:49:35;;;;;;;27.63;18.40;;;;;;;2.41;66.61;99833.13;524673;1104;116263;-64
2021/05/08 23:59:40;;;;;;;32.07;18.83;;;;;;;2.34;66.68;99845.41;525422;1104;116875;-64
